sensor_id;sensor_type;location;lat;lon;timestamp;P1;durP1;ratioP1;P2;durP2;ratioP2
27758;SDS011;15148;48.972;12.794;2024-03-29T00:04:04;0.88;;;0.85;;
27758;SDS011;15148;48.972;12.794;2024-03-29T00:09:05;2.30;;;0.90;;
27758;SDS011;15148;48.972;12.794;2024-03-29T00:14:06;1.88;;;1.25;;
27758;SDS011;15148;48.972;12.794;2024-03-29T00:19:07;0.88;;;0.80;;
27758;SDS011;15148;48.972;12.794;2024-03-29T00:24:08;0.93;;;0.90;;
27758;SDS011;15148;48.972;12.794;2024-03-29T00:29:09;1.35;;;0.90;;
27758;SDS011;15148;48.972;12.794;2024-03-29T00:34:10;1.83;;;1.10;;
27758;SDS011;15148;48.972;12.794;2024-03-29T00:39:13;1.23;;;0.90;;
27758;SDS011;15148;48.972;12.794;2024-03-29T00:44:14;0.98;;;0.88;;
27758;SDS011;15148;48.972;12.794;2024-03-29T00:49:15;2.55;;;0.95;;
27758;SDS011;15148;48.972;12.794;2024-03-29T00:54:16;1.58;;;1.10;;
27758;SDS011;15148;48.972;12.794;2024-03-29T00:59:17;1.67;;;0.93;;
27758;SDS011;15148;48.972;12.794;2024-03-29T01:04:18;0.90;;;0.80;;
27758;SDS011;15148;48.972;12.794;2024-03-29T01:09:19;1.05;;;0.82;;
27758;SDS011;15148;48.972;12.794;2024-03-29T01:14:20;0.93;;;0.80;;
27758;SDS011;15148;48.972;12.794;2024-03-29T01:19:22;2.25;;;0.85;;
27758;SDS011;15148;48.972;12.794;2024-03-29T01:24:23;3.00;;;0.80;;
27758;SDS011;15148;48.972;12.794;2024-03-29T01:29:24;1.52;;;0.80;;
27758;SDS011;15148;48.972;12.794;2024-03-29T01:34:25;1.67;;;0.65;;
27758;SDS011;15148;48.972;12.794;2024-03-29T01:39:26;0.98;;;0.80;;
27758;SDS011;15148;48.972;12.794;2024-03-29T01:44:31;1.02;;;0.88;;
27758;SDS011;15148;48.972;12.794;2024-03-29T01:49:32;1.60;;;0.82;;
27758;SDS011;15148;48.972;12.794;2024-03-29T01:54:34;1.45;;;0.65;;
27758;SDS011;15148;48.972;12.794;2024-03-29T01:59:36;1.13;;;0.88;;
27758;SDS011;15148;48.972;12.794;2024-03-29T02:04:38;1.63;;;0.82;;
27758;SDS011;15148;48.972;12.794;2024-03-29T02:09:42;1.35;;;0.70;;
27758;SDS011;15148;48.972;12.794;2024-03-29T02:14:44;0.82;;;0.65;;
27758;SDS011;15148;48.972;12.794;2024-03-29T02:19:44;1.20;;;0.68;;
27758;SDS011;15148;48.972;12.794;2024-03-29T02:24:45;0.95;;;0.52;;
27758;SDS011;15148;48.972;12.794;2024-03-29T02:29:47;0.95;;;0.68;;
27758;SDS011;15148;48.972;12.794;2024-03-29T02:34:48;3.80;;;0.80;;
27758;SDS011;15148;48.972;12.794;2024-03-29T02:39:49;1.08;;;0.60;;
27758;SDS011;15148;48.972;12.794;2024-03-29T02:44:50;1.58;;;0.60;;
27758;SDS011;15148;48.972;12.794;2024-03-29T02:49:51;1.63;;;0.70;;
27758;SDS011;15148;48.972;12.794;2024-03-29T02:54:51;0.68;;;0.60;;
27758;SDS011;15148;48.972;12.794;2024-03-29T02:59:52;0.95;;;0.45;;
27758;SDS011;15148;48.972;12.794;2024-03-29T03:04:53;0.77;;;0.50;;
27758;SDS011;15148;48.972;12.794;2024-03-29T03:09:54;0.60;;;0.50;;
27758;SDS011;15148;48.972;12.794;2024-03-29T03:15:14;1.90;;;0.65;;
27758;SDS011;15148;48.972;12.794;2024-03-29T03:20:15;0.68;;;0.47;;
27758;SDS011;15148;48.972;12.794;2024-03-29T03:25:16;1.88;;;0.70;;
27758;SDS011;15148;48.972;12.794;2024-03-29T03:30:17;0.63;;;0.47;;
27758;SDS011;15148;48.972;12.794;2024-03-29T03:35:18;0.68;;;0.35;;
27758;SDS011;15148;48.972;12.794;2024-03-29T03:40:19;1.75;;;0.65;;
27758;SDS011;15148;48.972;12.794;2024-03-29T03:45:20;2.63;;;0.35;;
27758;SDS011;15148;48.972;12.794;2024-03-29T03:50:21;1.35;;;0.50;;
27758;SDS011;15148;48.972;12.794;2024-03-29T03:55:22;1.50;;;0.45;;
27758;SDS011;15148;48.972;12.794;2024-03-29T04:00:24;0.88;;;0.50;;
27758;SDS011;15148;48.972;12.794;2024-03-29T04:05:25;0.52;;;0.40;;
27758;SDS011;15148;48.972;12.794;2024-03-29T04:10:26;0.30;;;0.25;;
27758;SDS011;15148;48.972;12.794;2024-03-29T04:15:27;0.63;;;0.40;;
27758;SDS011;15148;48.972;12.794;2024-03-29T04:20:28;0.82;;;0.40;;
27758;SDS011;15148;48.972;12.794;2024-03-29T04:25:29;0.57;;;0.32;;
27758;SDS011;15148;48.972;12.794;2024-03-29T04:30:30;0.30;;;0.30;;
27758;SDS011;15148;48.972;12.794;2024-03-29T04:35:31;1.25;;;0.40;;
27758;SDS011;15148;48.972;12.794;2024-03-29T04:40:32;0.57;;;0.30;;
27758;SDS011;15148;48.972;12.794;2024-03-29T04:45:33;1.42;;;0.50;;
27758;SDS011;15148;48.972;12.794;2024-03-29T04:50:34;0.30;;;0.30;;
27758;SDS011;15148;48.972;12.794;2024-03-29T04:55:35;2.42;;;0.30;;
27758;SDS011;15148;48.972;12.794;2024-03-29T05:00:36;1.17;;;0.60;;
27758;SDS011;15148;48.972;12.794;2024-03-29T05:05:37;1.48;;;0.30;;
27758;SDS011;15148;48.972;12.794;2024-03-29T05:10:41;0.50;;;0.50;;
27758;SDS011;15148;48.972;12.794;2024-03-29T05:15:42;2.17;;;0.30;;
27758;SDS011;15148;48.972;12.794;2024-03-29T05:20:43;1.00;;;0.45;;
27758;SDS011;15148;48.972;12.794;2024-03-29T05:25:49;0.40;;;0.40;;
27758;SDS011;15148;48.972;12.794;2024-03-29T05:30:50;0.50;;;0.40;;
27758;SDS011;15148;48.972;12.794;2024-03-29T05:35:51;1.85;;;0.68;;
27758;SDS011;15148;48.972;12.794;2024-03-29T05:40:52;1.30;;;0.40;;
27758;SDS011;15148;48.972;12.794;2024-03-29T05:45:53;0.80;;;0.30;;
27758;SDS011;15148;48.972;12.794;2024-03-29T05:50:54;1.65;;;0.52;;
27758;SDS011;15148;48.972;12.794;2024-03-29T05:55:55;0.52;;;0.32;;
27758;SDS011;15148;48.972;12.794;2024-03-29T06:00:56;0.45;;;0.40;;
27758;SDS011;15148;48.972;12.794;2024-03-29T06:05:58;0.60;;;0.40;;
27758;SDS011;15148;48.972;12.794;2024-03-29T06:10:59;1.00;;;0.30;;
27758;SDS011;15148;48.972;12.794;2024-03-29T06:16:01;0.70;;;0.38;;
27758;SDS011;15148;48.972;12.794;2024-03-29T06:21:22;1.35;;;1.15;;
27758;SDS011;15148;48.972;12.794;2024-03-29T06:26:23;0.77;;;0.63;;
27758;SDS011;15148;48.972;12.794;2024-03-29T06:31:23;1.65;;;0.60;;
27758;SDS011;15148;48.972;12.794;2024-03-29T06:36:24;1.77;;;0.68;;
27758;SDS011;15148;48.972;12.794;2024-03-29T06:41:26;0.55;;;0.50;;
27758;SDS011;15148;48.972;12.794;2024-03-29T06:46:27;1.73;;;0.50;;
27758;SDS011;15148;48.972;12.794;2024-03-29T06:51:28;1.23;;;0.50;;
27758;SDS011;15148;48.972;12.794;2024-03-29T06:56:29;0.70;;;0.55;;
27758;SDS011;15148;48.972;12.794;2024-03-29T07:01:30;2.22;;;0.40;;
27758;SDS011;15148;48.972;12.794;2024-03-29T07:06:31;0.82;;;0.55;;
27758;SDS011;15148;48.972;12.794;2024-03-29T07:11:32;3.08;;;2.47;;
27758;SDS011;15148;48.972;12.794;2024-03-29T07:16:33;0.35;;;0.30;;
27758;SDS011;15148;48.972;12.794;2024-03-29T07:21:34;0.65;;;0.50;;
27758;SDS011;15148;48.972;12.794;2024-03-29T07:26:35;3.67;;;3.30;;
27758;SDS011;15148;48.972;12.794;2024-03-29T07:31:36;21.60;;;19.50;;
27758;SDS011;15148;48.972;12.794;2024-03-29T07:36:37;0.65;;;0.65;;
27758;SDS011;15148;48.972;12.794;2024-03-29T07:41:39;3.35;;;3.05;;
27758;SDS011;15148;48.972;12.794;2024-03-29T07:46:40;1.00;;;0.60;;
27758;SDS011;15148;48.972;12.794;2024-03-29T07:51:41;2.05;;;0.43;;
27758;SDS011;15148;48.972;12.794;2024-03-29T07:56:42;1.88;;;1.60;;
27758;SDS011;15148;48.972;12.794;2024-03-29T08:01:43;6.28;;;4.18;;
27758;SDS011;15148;48.972;12.794;2024-03-29T08:06:44;1.80;;;0.98;;
27758;SDS011;15148;48.972;12.794;2024-03-29T08:11:45;1.15;;;0.70;;
27758;SDS011;15148;48.972;12.794;2024-03-29T08:16:46;1.42;;;0.82;;
27758;SDS011;15148;48.972;12.794;2024-03-29T08:21:47;1.13;;;0.65;;
27758;SDS011;15148;48.972;12.794;2024-03-29T08:26:48;0.90;;;0.47;;
27758;SDS011;15148;48.972;12.794;2024-03-29T08:31:49;1.15;;;0.50;;
27758;SDS011;15148;48.972;12.794;2024-03-29T08:36:50;0.65;;;0.50;;
27758;SDS011;15148;48.972;12.794;2024-03-29T08:41:51;0.32;;;0.28;;
27758;SDS011;15148;48.972;12.794;2024-03-29T08:46:52;0.40;;;0.40;;
27758;SDS011;15148;48.972;12.794;2024-03-29T08:51:55;0.98;;;0.38;;
27758;SDS011;15148;48.972;12.794;2024-03-29T08:56:57;0.20;;;0.10;;
27758;SDS011;15148;48.972;12.794;2024-03-29T09:02:05;0.20;;;0.20;;
27758;SDS011;15148;48.972;12.794;2024-03-29T09:07:07;0.68;;;0.50;;
27758;SDS011;15148;48.972;12.794;2024-03-29T09:12:08;1.17;;;0.40;;
27758;SDS011;15148;48.972;12.794;2024-03-29T09:17:09;0.75;;;0.30;;
27758;SDS011;15148;48.972;12.794;2024-03-29T09:22:11;0.57;;;0.38;;
27758;SDS011;15148;48.972;12.794;2024-03-29T09:27:13;0.50;;;0.30;;
27758;SDS011;15148;48.972;12.794;2024-03-29T09:32:14;0.80;;;0.40;;
27758;SDS011;15148;48.972;12.794;2024-03-29T09:37:18;1.23;;;0.60;;
27758;SDS011;15148;48.972;12.794;2024-03-29T09:42:21;1.42;;;0.30;;
27758;SDS011;15148;48.972;12.794;2024-03-29T09:47:26;1.20;;;0.50;;
27758;SDS011;15148;48.972;12.794;2024-03-29T09:52:28;0.32;;;0.30;;
27758;SDS011;15148;48.972;12.794;2024-03-29T09:57:31;0.25;;;0.20;;
27758;SDS011;15148;48.972;12.794;2024-03-29T10:02:32;0.40;;;0.40;;
27758;SDS011;15148;48.972;12.794;2024-03-29T10:07:34;0.85;;;0.20;;
27758;SDS011;15148;48.972;12.794;2024-03-29T10:12:37;1.15;;;0.70;;
27758;SDS011;15148;48.972;12.794;2024-03-29T10:17:39;1.15;;;0.70;;
27758;SDS011;15148;48.972;12.794;2024-03-29T10:22:50;1.58;;;1.20;;
27758;SDS011;15148;48.972;12.794;2024-03-29T10:27:51;2.60;;;1.77;;
27758;SDS011;15148;48.972;12.794;2024-03-29T10:32:55;0.30;;;0.30;;
27758;SDS011;15148;48.972;12.794;2024-03-29T10:38:01;0.32;;;0.32;;
27758;SDS011;15148;48.972;12.794;2024-03-29T10:43:03;0.80;;;0.38;;
27758;SDS011;15148;48.972;12.794;2024-03-29T10:48:09;0.50;;;0.38;;
27758;SDS011;15148;48.972;12.794;2024-03-29T10:53:11;1.42;;;0.70;;
27758;SDS011;15148;48.972;12.794;2024-03-29T10:58:15;0.65;;;0.63;;
27758;SDS011;15148;48.972;12.794;2024-03-29T11:03:20;1.08;;;0.45;;
27758;SDS011;15148;48.972;12.794;2024-03-29T11:08:27;0.70;;;0.60;;
27758;SDS011;15148;48.972;12.794;2024-03-29T11:13:40;0.63;;;0.30;;
27758;SDS011;15148;48.972;12.794;2024-03-29T11:19:11;0.73;;;0.55;;
27758;SDS011;15148;48.972;12.794;2024-03-29T11:24:15;1.13;;;0.50;;
27758;SDS011;15148;48.972;12.794;2024-03-29T11:29:26;1.17;;;0.90;;
27758;SDS011;15148;48.972;12.794;2024-03-29T11:34:34;0.55;;;0.32;;
27758;SDS011;15148;48.972;12.794;2024-03-29T11:39:35;1.25;;;0.65;;
27758;SDS011;15148;48.972;12.794;2024-03-29T11:44:37;0.55;;;0.40;;
27758;SDS011;15148;48.972;12.794;2024-03-29T11:49:37;2.60;;;0.55;;
27758;SDS011;15148;48.972;12.794;2024-03-29T11:54:39;1.05;;;0.55;;
27758;SDS011;15148;48.972;12.794;2024-03-29T11:59:40;1.85;;;0.60;;
27758;SDS011;15148;48.972;12.794;2024-03-29T12:04:41;0.32;;;0.32;;
27758;SDS011;15148;48.972;12.794;2024-03-29T12:09:42;0.40;;;0.28;;
27758;SDS011;15148;48.972;12.794;2024-03-29T12:14:43;0.47;;;0.38;;
27758;SDS011;15148;48.972;12.794;2024-03-29T12:19:44;0.93;;;0.40;;
27758;SDS011;15148;48.972;12.794;2024-03-29T12:24:48;0.57;;;0.57;;
27758;SDS011;15148;48.972;12.794;2024-03-29T12:29:51;0.85;;;0.65;;
27758;SDS011;15148;48.972;12.794;2024-03-29T12:34:52;0.43;;;0.43;;
27758;SDS011;15148;48.972;12.794;2024-03-29T12:39:54;1.00;;;0.90;;
27758;SDS011;15148;48.972;12.794;2024-03-29T12:44:57;1.58;;;0.60;;
27758;SDS011;15148;48.972;12.794;2024-03-29T12:49:59;0.30;;;0.30;;
27758;SDS011;15148;48.972;12.794;2024-03-29T12:55:03;0.80;;;0.80;;
27758;SDS011;15148;48.972;12.794;2024-03-29T13:00:05;0.43;;;0.40;;
27758;SDS011;15148;48.972;12.794;2024-03-29T13:05:10;0.90;;;0.63;;
27758;SDS011;15148;48.972;12.794;2024-03-29T13:10:11;0.50;;;0.50;;
27758;SDS011;15148;48.972;12.794;2024-03-29T13:15:22;0.50;;;0.50;;
27758;SDS011;15148;48.972;12.794;2024-03-29T13:20:26;0.40;;;0.40;;
27758;SDS011;15148;48.972;12.794;2024-03-29T13:25:27;1.35;;;0.40;;
27758;SDS011;15148;48.972;12.794;2024-03-29T13:30:28;1.27;;;0.60;;
27758;SDS011;15148;48.972;12.794;2024-03-29T13:35:31;0.63;;;0.50;;
27758;SDS011;15148;48.972;12.794;2024-03-29T13:40:33;0.63;;;0.40;;
27758;SDS011;15148;48.972;12.794;2024-03-29T13:45:34;0.65;;;0.50;;
27758;SDS011;15148;48.972;12.794;2024-03-29T13:50:36;1.40;;;0.60;;
27758;SDS011;15148;48.972;12.794;2024-03-29T13:55:36;0.70;;;0.60;;
27758;SDS011;15148;48.972;12.794;2024-03-29T14:00:38;0.82;;;0.45;;
27758;SDS011;15148;48.972;12.794;2024-03-29T14:05:38;0.77;;;0.50;;
27758;SDS011;15148;48.972;12.794;2024-03-29T14:10:39;0.65;;;0.50;;
27758;SDS011;15148;48.972;12.794;2024-03-29T14:15:41;1.52;;;0.50;;
27758;SDS011;15148;48.972;12.794;2024-03-29T14:20:41;1.55;;;0.60;;
27758;SDS011;15148;48.972;12.794;2024-03-29T14:25:43;0.63;;;0.50;;
27758;SDS011;15148;48.972;12.794;2024-03-29T14:30:44;0.80;;;0.40;;
27758;SDS011;15148;48.972;12.794;2024-03-29T14:35:45;0.85;;;0.50;;
27758;SDS011;15148;48.972;12.794;2024-03-29T14:40:48;4.05;;;0.60;;
27758;SDS011;15148;48.972;12.794;2024-03-29T14:45:49;1.00;;;0.50;;
27758;SDS011;15148;48.972;12.794;2024-03-29T14:50:50;5.68;;;3.55;;
27758;SDS011;15148;48.972;12.794;2024-03-29T14:55:51;1.48;;;0.80;;
27758;SDS011;15148;48.972;12.794;2024-03-29T15:00:52;0.50;;;0.50;;
27758;SDS011;15148;48.972;12.794;2024-03-29T15:05:54;1.15;;;0.47;;
27758;SDS011;15148;48.972;12.794;2024-03-29T15:10:59;1.70;;;0.40;;
27758;SDS011;15148;48.972;12.794;2024-03-29T15:16:01;0.80;;;0.50;;
27758;SDS011;15148;48.972;12.794;2024-03-29T15:21:03;0.60;;;0.60;;
27758;SDS011;15148;48.972;12.794;2024-03-29T15:26:04;1.35;;;0.65;;
27758;SDS011;15148;48.972;12.794;2024-03-29T15:31:19;2.38;;;1.30;;
27758;SDS011;15148;48.972;12.794;2024-03-29T15:36:22;0.85;;;0.60;;
27758;SDS011;15148;48.972;12.794;2024-03-29T15:41:23;1.35;;;0.82;;
27758;SDS011;15148;48.972;12.794;2024-03-29T15:46:24;3.22;;;0.60;;
27758;SDS011;15148;48.972;12.794;2024-03-29T15:51:25;4.72;;;1.13;;
27758;SDS011;15148;48.972;12.794;2024-03-29T15:56:27;0.88;;;0.68;;
27758;SDS011;15148;48.972;12.794;2024-03-29T16:01:29;0.73;;;0.65;;
27758;SDS011;15148;48.972;12.794;2024-03-29T16:06:31;1.20;;;0.52;;
27758;SDS011;15148;48.972;12.794;2024-03-29T16:11:36;0.75;;;0.60;;
27758;SDS011;15148;48.972;12.794;2024-03-29T16:16:38;1.38;;;0.40;;
27758;SDS011;15148;48.972;12.794;2024-03-29T16:21:39;2.88;;;0.52;;
27758;SDS011;15148;48.972;12.794;2024-03-29T16:26:40;1.45;;;0.70;;
27758;SDS011;15148;48.972;12.794;2024-03-29T16:31:41;2.08;;;0.52;;
27758;SDS011;15148;48.972;12.794;2024-03-29T16:36:42;0.70;;;0.70;;
27758;SDS011;15148;48.972;12.794;2024-03-29T16:41:43;1.83;;;0.70;;
27758;SDS011;15148;48.972;12.794;2024-03-29T16:46:46;1.27;;;0.63;;
27758;SDS011;15148;48.972;12.794;2024-03-29T16:51:47;2.28;;;1.08;;
27758;SDS011;15148;48.972;12.794;2024-03-29T16:56:48;1.23;;;0.90;;
27758;SDS011;15148;48.972;12.794;2024-03-29T17:01:49;1.80;;;0.52;;
27758;SDS011;15148;48.972;12.794;2024-03-29T17:06:50;2.90;;;0.82;;
27758;SDS011;15148;48.972;12.794;2024-03-29T17:11:51;3.30;;;3.00;;
27758;SDS011;15148;48.972;12.794;2024-03-29T17:16:52;5.72;;;1.23;;
27758;SDS011;15148;48.972;12.794;2024-03-29T17:21:56;4.95;;;1.73;;
27758;SDS011;15148;48.972;12.794;2024-03-29T17:26:58;1.00;;;0.90;;
27758;SDS011;15148;48.972;12.794;2024-03-29T17:31:59;32.70;;;16.02;;
27758;SDS011;15148;48.972;12.794;2024-03-29T17:37:00;4.43;;;2.00;;
27758;SDS011;15148;48.972;12.794;2024-03-29T17:42:01;1.48;;;1.10;;
27758;SDS011;15148;48.972;12.794;2024-03-29T17:47:03;1.50;;;1.13;;
27758;SDS011;15148;48.972;12.794;2024-03-29T17:52:04;1.08;;;0.98;;
27758;SDS011;15148;48.972;12.794;2024-03-29T17:57:06;3.65;;;2.08;;
27758;SDS011;15148;48.972;12.794;2024-03-29T18:02:07;1.80;;;1.02;;
27758;SDS011;15148;48.972;12.794;2024-03-29T18:07:08;3.95;;;1.27;;
27758;SDS011;15148;48.972;12.794;2024-03-29T18:12:09;2.35;;;0.77;;
27758;SDS011;15148;48.972;12.794;2024-03-29T18:17:10;2.50;;;1.02;;
27758;SDS011;15148;48.972;12.794;2024-03-29T18:22:10;2.28;;;1.25;;
27758;SDS011;15148;48.972;12.794;2024-03-29T18:27:12;4.78;;;1.42;;
27758;SDS011;15148;48.972;12.794;2024-03-29T18:32:13;4.53;;;1.70;;
27758;SDS011;15148;48.972;12.794;2024-03-29T18:37:14;6.00;;;1.55;;
27758;SDS011;15148;48.972;12.794;2024-03-29T18:42:15;10.70;;;3.22;;
27758;SDS011;15148;48.972;12.794;2024-03-29T18:47:16;13.18;;;3.70;;
27758;SDS011;15148;48.972;12.794;2024-03-29T18:52:17;9.55;;;2.10;;
27758;SDS011;15148;48.972;12.794;2024-03-29T18:57:18;10.07;;;2.75;;
27758;SDS011;15148;48.972;12.794;2024-03-29T19:02:19;11.10;;;2.90;;
27758;SDS011;15148;48.972;12.794;2024-03-29T19:07:20;12.15;;;2.60;;
27758;SDS011;15148;48.972;12.794;2024-03-29T19:12:21;27.98;;;8.90;;
27758;SDS011;15148;48.972;12.794;2024-03-29T19:17:22;28.20;;;4.95;;
27758;SDS011;15148;48.972;12.794;2024-03-29T19:22:23;17.73;;;3.80;;
27758;SDS011;15148;48.972;12.794;2024-03-29T19:27:24;25.35;;;5.00;;
27758;SDS011;15148;48.972;12.794;2024-03-29T19:32:26;33.95;;;9.63;;
27758;SDS011;15148;48.972;12.794;2024-03-29T19:37:28;31.15;;;7.43;;
27758;SDS011;15148;48.972;12.794;2024-03-29T19:42:29;32.70;;;7.57;;
27758;SDS011;15148;48.972;12.794;2024-03-29T19:47:30;25.00;;;5.88;;
27758;SDS011;15148;48.972;12.794;2024-03-29T19:52:31;41.72;;;9.23;;
27758;SDS011;15148;48.972;12.794;2024-03-29T19:57:33;33.03;;;7.10;;
27758;SDS011;15148;48.972;12.794;2024-03-29T20:02:34;49.90;;;8.52;;
27758;SDS011;15148;48.972;12.794;2024-03-29T20:07:35;43.97;;;10.10;;
27758;SDS011;15148;48.972;12.794;2024-03-29T20:12:36;54.55;;;10.45;;
27758;SDS011;15148;48.972;12.794;2024-03-29T20:17:39;63.00;;;8.90;;
27758;SDS011;15148;48.972;12.794;2024-03-29T20:22:40;49.67;;;8.05;;
27758;SDS011;15148;48.972;12.794;2024-03-29T20:27:41;51.78;;;9.02;;
27758;SDS011;15148;48.972;12.794;2024-03-29T20:32:45;72.20;;;11.85;;
27758;SDS011;15148;48.972;12.794;2024-03-29T20:37:50;72.45;;;13.23;;
27758;SDS011;15148;48.972;12.794;2024-03-29T20:42:53;90.82;;;14.27;;
27758;SDS011;15148;48.972;12.794;2024-03-29T20:47:53;84.80;;;14.13;;
27758;SDS011;15148;48.972;12.794;2024-03-29T20:52:55;104.18;;;16.27;;
27758;SDS011;15148;48.972;12.794;2024-03-29T20:57:58;96.78;;;15.02;;
27758;SDS011;15148;48.972;12.794;2024-03-29T21:02:59;134.63;;;20.30;;
27758;SDS011;15148;48.972;12.794;2024-03-29T21:08:19;130.13;;;21.05;;
27758;SDS011;15148;48.972;12.794;2024-03-29T21:13:20;129.20;;;19.75;;
27758;SDS011;15148;48.972;12.794;2024-03-29T21:18:21;117.65;;;18.58;;
27758;SDS011;15148;48.972;12.794;2024-03-29T21:23:22;102.78;;;17.65;;
27758;SDS011;15148;48.972;12.794;2024-03-29T21:28:23;117.70;;;22.60;;
27758;SDS011;15148;48.972;12.794;2024-03-29T21:33:24;134.02;;;20.88;;
27758;SDS011;15148;48.972;12.794;2024-03-29T21:38:25;133.52;;;21.30;;
27758;SDS011;15148;48.972;12.794;2024-03-29T21:43:26;132.85;;;21.92;;
27758;SDS011;15148;48.972;12.794;2024-03-29T21:48:27;142.95;;;25.08;;
27758;SDS011;15148;48.972;12.794;2024-03-29T21:53:28;121.03;;;22.10;;
27758;SDS011;15148;48.972;12.794;2024-03-29T21:58:29;157.38;;;25.42;;
27758;SDS011;15148;48.972;12.794;2024-03-29T22:03:30;153.63;;;24.42;;
27758;SDS011;15148;48.972;12.794;2024-03-29T22:08:31;177.55;;;22.83;;
27758;SDS011;15148;48.972;12.794;2024-03-29T22:13:32;127.30;;;22.20;;
27758;SDS011;15148;48.972;12.794;2024-03-29T22:18:33;144.60;;;23.08;;
27758;SDS011;15148;48.972;12.794;2024-03-29T22:23:36;161.40;;;24.63;;
27758;SDS011;15148;48.972;12.794;2024-03-29T22:28:37;137.15;;;21.80;;
27758;SDS011;15148;48.972;12.794;2024-03-29T22:33:38;168.35;;;25.75;;
27758;SDS011;15148;48.972;12.794;2024-03-29T22:38:39;151.68;;;26.73;;
27758;SDS011;15148;48.972;12.794;2024-03-29T22:43:40;137.50;;;22.30;;
27758;SDS011;15148;48.972;12.794;2024-03-29T22:48:41;140.73;;;23.50;;
27758;SDS011;15148;48.972;12.794;2024-03-29T22:53:42;162.98;;;25.13;;
27758;SDS011;15148;48.972;12.794;2024-03-29T22:58:43;163.45;;;25.27;;
27758;SDS011;15148;48.972;12.794;2024-03-29T23:03:44;170.45;;;26.65;;
27758;SDS011;15148;48.972;12.794;2024-03-29T23:08:45;167.25;;;26.27;;
27758;SDS011;15148;48.972;12.794;2024-03-29T23:13:46;131.73;;;23.95;;
27758;SDS011;15148;48.972;12.794;2024-03-29T23:18:47;161.73;;;23.60;;
27758;SDS011;15148;48.972;12.794;2024-03-29T23:23:50;127.30;;;24.85;;
27758;SDS011;15148;48.972;12.794;2024-03-29T23:28:51;159.23;;;24.73;;
27758;SDS011;15148;48.972;12.794;2024-03-29T23:33:52;175.77;;;23.50;;
27758;SDS011;15148;48.972;12.794;2024-03-29T23:38:52;163.82;;;23.98;;
27758;SDS011;15148;48.972;12.794;2024-03-29T23:43:54;144.35;;;24.17;;
27758;SDS011;15148;48.972;12.794;2024-03-29T23:48:55;144.25;;;22.95;;
27758;SDS011;15148;48.972;12.794;2024-03-29T23:53:56;165.85;;;24.30;;
27758;SDS011;15148;48.972;12.794;2024-03-29T23:58:57;151.80;;;22.30;;
